sensor_id;sensor_type;location;lat;lon;timestamp;temperature;humidity
24017;DHT22;12222;50.090;19.702;2022-08-23T00:02:39;17.00;99.90
24017;DHT22;12222;50.090;19.702;2022-08-23T00:08:02;17.00;99.90
24017;DHT22;12222;50.090;19.702;2022-08-23T00:13:24;17.00;99.90
24017;DHT22;12222;50.090;19.702;2022-08-23T00:19:08;17.00;99.90
24017;DHT22;12222;50.090;19.702;2022-08-23T00:24:31;17.00;99.90
24017;DHT22;12222;50.090;19.702;2022-08-23T00:30:00;16.80;99.90
24017;DHT22;12222;50.090;19.702;2022-08-23T00:35:22;16.70;99.90
24017;DHT22;12222;50.090;19.702;2022-08-23T00:40:50;16.70;99.90
24017;DHT22;12222;50.090;19.702;2022-08-23T00:52:10;16.90;99.90
24017;DHT22;12222;50.090;19.702;2022-08-23T00:57:35;17.00;99.90
24017;DHT22;12222;50.090;19.702;2022-08-23T01:02:58;16.90;99.90
24017;DHT22;12222;50.090;19.702;2022-08-23T01:08:23;16.80;99.90
24017;DHT22;12222;50.090;19.702;2022-08-23T01:13:56;17.00;99.90
24017;DHT22;12222;50.090;19.702;2022-08-23T01:19:27;16.90;99.90
24017;DHT22;12222;50.090;19.702;2022-08-23T01:24:54;16.90;99.90
24017;DHT22;12222;50.090;19.702;2022-08-23T01:30:33;16.90;99.90
24017;DHT22;12222;50.090;19.702;2022-08-23T01:35:57;16.90;99.90
24017;DHT22;12222;50.090;19.702;2022-08-23T01:41:22;16.90;99.90
24017;DHT22;12222;50.090;19.702;2022-08-23T01:46:45;16.90;99.90
24017;DHT22;12222;50.090;19.702;2022-08-23T01:52:08;16.90;99.90
24017;DHT22;12222;50.090;19.702;2022-08-23T01:57:30;17.10;99.90
24017;DHT22;12222;50.090;19.702;2022-08-23T02:02:56;17.20;99.90
24017;DHT22;12222;50.090;19.702;2022-08-23T02:08:18;17.20;99.90
24017;DHT22;12222;50.090;19.702;2022-08-23T02:14:02;17.20;99.90
24017;DHT22;12222;50.090;19.702;2022-08-23T02:19:37;17.10;99.90
24017;DHT22;12222;50.090;19.702;2022-08-23T02:25:00;17.20;99.90
24017;DHT22;12222;50.090;19.702;2022-08-23T02:30:22;17.00;99.90
24017;DHT22;12222;50.090;19.702;2022-08-23T02:35:46;17.00;99.90
24017;DHT22;12222;50.090;19.702;2022-08-23T02:41:10;17.10;99.90
24017;DHT22;12222;50.090;19.702;2022-08-23T02:46:32;17.20;99.90
24017;DHT22;12222;50.090;19.702;2022-08-23T02:51:55;17.10;99.90
24017;DHT22;12222;50.090;19.702;2022-08-23T02:57:18;16.90;99.90
24017;DHT22;12222;50.090;19.702;2022-08-23T03:02:40;17.00;99.90
24017;DHT22;12222;50.090;19.702;2022-08-23T03:08:03;17.00;99.90
24017;DHT22;12222;50.090;19.702;2022-08-23T03:13:33;17.00;99.90
24017;DHT22;12222;50.090;19.702;2022-08-23T03:18:55;17.00;99.90
24017;DHT22;12222;50.090;19.702;2022-08-23T03:24:17;17.00;99.90
24017;DHT22;12222;50.090;19.702;2022-08-23T03:29:40;17.00;99.90
24017;DHT22;12222;50.090;19.702;2022-08-23T03:35:02;17.10;99.90
24017;DHT22;12222;50.090;19.702;2022-08-23T03:40:31;17.10;99.90
24017;DHT22;12222;50.090;19.702;2022-08-23T03:45:55;17.10;99.90
24017;DHT22;12222;50.090;19.702;2022-08-23T03:51:18;17.10;99.90
24017;DHT22;12222;50.090;19.702;2022-08-23T03:56:55;17.20;99.90
24017;DHT22;12222;50.090;19.702;2022-08-23T04:02:18;17.20;99.90
24017;DHT22;12222;50.090;19.702;2022-08-23T04:07:41;17.20;99.90
24017;DHT22;12222;50.090;19.702;2022-08-23T04:13:03;17.20;99.90
24017;DHT22;12222;50.090;19.702;2022-08-23T04:18:26;17.20;99.90
24017;DHT22;12222;50.090;19.702;2022-08-23T04:23:51;17.20;99.90
24017;DHT22;12222;50.090;19.702;2022-08-23T04:29:15;17.30;99.90
24017;DHT22;12222;50.090;19.702;2022-08-23T04:34:55;17.40;99.90
24017;DHT22;12222;50.090;19.702;2022-08-23T04:40:18;17.40;99.90
24017;DHT22;12222;50.090;19.702;2022-08-23T04:45:59;17.50;99.90
24017;DHT22;12222;50.090;19.702;2022-08-23T04:51:27;17.40;99.90
24017;DHT22;12222;50.090;19.702;2022-08-23T04:56:50;17.50;99.90
24017;DHT22;12222;50.090;19.702;2022-08-23T05:02:15;17.60;99.90
24017;DHT22;12222;50.090;19.702;2022-08-23T05:07:38;17.60;99.90
24017;DHT22;12222;50.090;19.702;2022-08-23T05:13:04;17.60;99.90
24017;DHT22;12222;50.090;19.702;2022-08-23T05:18:27;17.70;99.90
24017;DHT22;12222;50.090;19.702;2022-08-23T05:23:50;17.80;99.90
24017;DHT22;12222;50.090;19.702;2022-08-23T05:29:17;18.00;99.90
24017;DHT22;12222;50.090;19.702;2022-08-23T05:34:44;18.20;99.90
24017;DHT22;12222;50.090;19.702;2022-08-23T05:40:07;18.40;99.90
24017;DHT22;12222;50.090;19.702;2022-08-23T05:45:37;18.50;99.90
24017;DHT22;12222;50.090;19.702;2022-08-23T05:51:24;18.50;99.90
24017;DHT22;12222;50.090;19.702;2022-08-23T05:56:47;18.40;99.90
24017;DHT22;12222;50.090;19.702;2022-08-23T06:02:10;18.50;99.90
24017;DHT22;12222;50.090;19.702;2022-08-23T06:07:33;18.60;99.90
24017;DHT22;12222;50.090;19.702;2022-08-23T06:12:56;18.60;99.90
24017;DHT22;12222;50.090;19.702;2022-08-23T06:18:18;18.70;99.90
24017;DHT22;12222;50.090;19.702;2022-08-23T06:23:43;18.80;99.90
24017;DHT22;12222;50.090;19.702;2022-08-23T06:29:14;19.00;99.90
24017;DHT22;12222;50.090;19.702;2022-08-23T06:34:39;19.00;99.90
24017;DHT22;12222;50.090;19.702;2022-08-23T06:40:37;19.30;99.90
24017;DHT22;12222;50.090;19.702;2022-08-23T06:46:21;19.40;99.90
24017;DHT22;12222;50.090;19.702;2022-08-23T06:51:49;19.30;99.90
24017;DHT22;12222;50.090;19.702;2022-08-23T06:57:33;19.30;99.90
24017;DHT22;12222;50.090;19.702;2022-08-23T07:03:15;19.40;99.90
24017;DHT22;12222;50.090;19.702;2022-08-23T07:08:58;19.70;99.90
24017;DHT22;12222;50.090;19.702;2022-08-23T07:14:22;20.00;99.90
24017;DHT22;12222;50.090;19.702;2022-08-23T07:19:47;20.40;99.90
24017;DHT22;12222;50.090;19.702;2022-08-23T07:25:10;20.70;99.90
24017;DHT22;12222;50.090;19.702;2022-08-23T07:30:35;20.70;99.90
24017;DHT22;12222;50.090;19.702;2022-08-23T07:36:05;20.90;99.90
24017;DHT22;12222;50.090;19.702;2022-08-23T07:41:29;20.90;99.90
24017;DHT22;12222;50.090;19.702;2022-08-23T07:46:55;20.60;99.90
24017;DHT22;12222;50.090;19.702;2022-08-23T07:52:19;20.30;99.90
24017;DHT22;12222;50.090;19.702;2022-08-23T07:57:45;20.40;99.90
24017;DHT22;12222;50.090;19.702;2022-08-23T08:03:31;20.50;99.90
24017;DHT22;12222;50.090;19.702;2022-08-23T08:09:13;20.50;99.90
24017;DHT22;12222;50.090;19.702;2022-08-23T08:14:37;20.60;99.90
24017;DHT22;12222;50.090;19.702;2022-08-23T08:20:03;20.90;99.90
24017;DHT22;12222;50.090;19.702;2022-08-23T08:25:43;21.00;99.90
24017;DHT22;12222;50.090;19.702;2022-08-23T08:31:10;20.90;99.90
24017;DHT22;12222;50.090;19.702;2022-08-23T08:36:43;21.40;99.90
24017;DHT22;12222;50.090;19.702;2022-08-23T08:48:05;21.10;99.90
24017;DHT22;12222;50.090;19.702;2022-08-23T08:53:44;21.60;99.90
24017;DHT22;12222;50.090;19.702;2022-08-23T08:59:26;21.00;99.90
24017;DHT22;12222;50.090;19.702;2022-08-23T09:04:52;21.00;99.90
24017;DHT22;12222;50.090;19.702;2022-08-23T09:22:10;21.50;99.90
24017;DHT22;12222;50.090;19.702;2022-08-23T09:27:39;22.60;99.90
24017;DHT22;12222;50.090;19.702;2022-08-23T09:33:25;23.80;99.90
24017;DHT22;12222;50.090;19.702;2022-08-23T09:44:39;23.40;99.90
24017;DHT22;12222;50.090;19.702;2022-08-23T09:50:22;23.20;99.90
24017;DHT22;12222;50.090;19.702;2022-08-23T09:55:53;22.30;99.90
24017;DHT22;12222;50.090;19.702;2022-08-23T10:01:28;22.10;99.90
24017;DHT22;12222;50.090;19.702;2022-08-23T10:07:34;21.90;99.90
24017;DHT22;12222;50.090;19.702;2022-08-23T10:12:59;22.40;99.90
24017;DHT22;12222;50.090;19.702;2022-08-23T10:18:46;23.20;99.90
24017;DHT22;12222;50.090;19.702;2022-08-23T10:24:35;23.60;99.90
24017;DHT22;12222;50.090;19.702;2022-08-23T10:30:20;23.70;99.90
24017;DHT22;12222;50.090;19.702;2022-08-23T10:41:39;24.00;99.90
24017;DHT22;12222;50.090;19.702;2022-08-23T10:47:28;24.80;99.90
24017;DHT22;12222;50.090;19.702;2022-08-23T10:53:02;25.20;99.90
24017;DHT22;12222;50.090;19.702;2022-08-23T10:58:26;25.90;99.90
24017;DHT22;12222;50.090;19.702;2022-08-23T11:04:01;25.90;99.90
24017;DHT22;12222;50.090;19.702;2022-08-23T11:10:11;24.70;99.90
24017;DHT22;12222;50.090;19.702;2022-08-23T11:16:11;24.60;99.90
24017;DHT22;12222;50.090;19.702;2022-08-23T11:21:43;24.60;99.90
24017;DHT22;12222;50.090;19.702;2022-08-23T11:27:37;24.60;99.90
24017;DHT22;12222;50.090;19.702;2022-08-23T11:33:42;24.60;99.90
24017;DHT22;12222;50.090;19.702;2022-08-23T11:39:24;23.90;99.90
24017;DHT22;12222;50.090;19.702;2022-08-23T12:02:53;25.00;99.90
24017;DHT22;12222;50.090;19.702;2022-08-23T12:08:28;25.20;99.90
24017;DHT22;12222;50.090;19.702;2022-08-23T12:14:00;25.30;99.90
24017;DHT22;12222;50.090;19.702;2022-08-23T12:20:26;24.90;99.90
24017;DHT22;12222;50.090;19.702;2022-08-23T12:26:24;26.00;99.90
24017;DHT22;12222;50.090;19.702;2022-08-23T12:31:55;25.70;99.90
24017;DHT22;12222;50.090;19.702;2022-08-23T12:42:45;25.20;99.90
24017;DHT22;12222;50.090;19.702;2022-08-23T12:48:15;24.80;99.90
24017;DHT22;12222;50.090;19.702;2022-08-23T12:53:42;25.30;99.90
24017;DHT22;12222;50.090;19.702;2022-08-23T12:59:26;25.50;99.90
24017;DHT22;12222;50.090;19.702;2022-08-23T13:04:57;25.50;99.90
24017;DHT22;12222;50.090;19.702;2022-08-23T13:10:21;25.20;99.90
24017;DHT22;12222;50.090;19.702;2022-08-23T13:15:54;25.50;99.90
24017;DHT22;12222;50.090;19.702;2022-08-23T13:21:28;26.00;99.90
24017;DHT22;12222;50.090;19.702;2022-08-23T13:27:25;25.80;99.90
24017;DHT22;12222;50.090;19.702;2022-08-23T13:38:32;25.20;99.90
24017;DHT22;12222;50.090;19.702;2022-08-23T13:44:05;24.70;99.90
24017;DHT22;12222;50.090;19.702;2022-08-23T13:49:29;25.20;99.90
24017;DHT22;12222;50.090;19.702;2022-08-23T13:55:04;25.20;99.90
24017;DHT22;12222;50.090;19.702;2022-08-23T14:00:27;25.30;99.90
24017;DHT22;12222;50.090;19.702;2022-08-23T14:05:50;25.30;99.90
24017;DHT22;12222;50.090;19.702;2022-08-23T14:11:21;25.10;99.90
24017;DHT22;12222;50.090;19.702;2022-08-23T14:16:44;25.10;99.90
24017;DHT22;12222;50.090;19.702;2022-08-23T14:22:10;24.80;99.90
24017;DHT22;12222;50.090;19.702;2022-08-23T14:27:33;24.70;99.90
24017;DHT22;12222;50.090;19.702;2022-08-23T14:32:58;24.70;99.90
24017;DHT22;12222;50.090;19.702;2022-08-23T14:38:22;24.60;99.90
24017;DHT22;12222;50.090;19.702;2022-08-23T14:43:47;24.70;99.90
24017;DHT22;12222;50.090;19.702;2022-08-23T14:49:11;24.70;99.90
24017;DHT22;12222;50.090;19.702;2022-08-23T14:54:35;24.60;99.90
24017;DHT22;12222;50.090;19.702;2022-08-23T14:59:58;24.60;99.90
24017;DHT22;12222;50.090;19.702;2022-08-23T15:05:21;24.40;99.90
24017;DHT22;12222;50.090;19.702;2022-08-23T15:10:44;24.60;99.90
24017;DHT22;12222;50.090;19.702;2022-08-23T15:16:14;24.50;99.90
24017;DHT22;12222;50.090;19.702;2022-08-23T15:21:38;24.30;99.90
24017;DHT22;12222;50.090;19.702;2022-08-23T15:27:02;24.60;99.90
24017;DHT22;12222;50.090;19.702;2022-08-23T15:32:25;24.50;99.90
24017;DHT22;12222;50.090;19.702;2022-08-23T15:37:49;24.70;99.90
24017;DHT22;12222;50.090;19.702;2022-08-23T15:43:12;24.50;99.90
24017;DHT22;12222;50.090;19.702;2022-08-23T15:48:40;24.60;99.90
24017;DHT22;12222;50.090;19.702;2022-08-23T15:54:04;24.70;99.90
24017;DHT22;12222;50.090;19.702;2022-08-23T15:59:27;24.80;99.90
24017;DHT22;12222;50.090;19.702;2022-08-23T16:04:51;24.90;99.90
24017;DHT22;12222;50.090;19.702;2022-08-23T16:10:14;24.70;99.90
24017;DHT22;12222;50.090;19.702;2022-08-23T16:15:38;24.80;99.90
24017;DHT22;12222;50.090;19.702;2022-08-23T16:21:01;24.60;99.90
24017;DHT22;12222;50.090;19.702;2022-08-23T16:26:30;24.80;99.90
24017;DHT22;12222;50.090;19.702;2022-08-23T16:31:56;24.80;99.90
24017;DHT22;12222;50.090;19.702;2022-08-23T16:37:20;24.60;99.90
24017;DHT22;12222;50.090;19.702;2022-08-23T16:42:43;24.40;99.90
24017;DHT22;12222;50.090;19.702;2022-08-23T16:48:14;24.10;99.90
24017;DHT22;12222;50.090;19.702;2022-08-23T16:53:37;23.80;99.90
24017;DHT22;12222;50.090;19.702;2022-08-23T16:59:02;23.70;99.90
24017;DHT22;12222;50.090;19.702;2022-08-23T17:04:27;23.60;99.90
24017;DHT22;12222;50.090;19.702;2022-08-23T17:09:51;23.40;99.90
24017;DHT22;12222;50.090;19.702;2022-08-23T17:15:19;23.10;99.90
24017;DHT22;12222;50.090;19.702;2022-08-23T17:20:43;22.80;99.90
24017;DHT22;12222;50.090;19.702;2022-08-23T17:26:07;22.60;99.90
24017;DHT22;12222;50.090;19.702;2022-08-23T17:31:31;22.40;99.90
24017;DHT22;12222;50.090;19.702;2022-08-23T17:36:54;22.10;99.90
24017;DHT22;12222;50.090;19.702;2022-08-23T17:42:18;22.00;99.90
24017;DHT22;12222;50.090;19.702;2022-08-23T17:47:42;21.90;99.90
24017;DHT22;12222;50.090;19.702;2022-08-23T17:53:06;21.80;99.90
24017;DHT22;12222;50.090;19.702;2022-08-23T17:58:29;21.60;99.90
24017;DHT22;12222;50.090;19.702;2022-08-23T18:03:52;21.40;99.90
24017;DHT22;12222;50.090;19.702;2022-08-23T18:09:15;21.20;99.90
24017;DHT22;12222;50.090;19.702;2022-08-23T18:14:39;21.10;99.90
24017;DHT22;12222;50.090;19.702;2022-08-23T18:20:05;21.10;99.90
24017;DHT22;12222;50.090;19.702;2022-08-23T18:25:30;21.00;99.90
24017;DHT22;12222;50.090;19.702;2022-08-23T18:30:54;20.80;99.90
24017;DHT22;12222;50.090;19.702;2022-08-23T18:36:17;20.80;99.90
24017;DHT22;12222;50.090;19.702;2022-08-23T18:41:40;20.80;99.90
24017;DHT22;12222;50.090;19.702;2022-08-23T18:47:04;20.60;99.90
24017;DHT22;12222;50.090;19.702;2022-08-23T18:52:27;20.50;99.90
24017;DHT22;12222;50.090;19.702;2022-08-23T18:57:52;20.40;99.90
24017;DHT22;12222;50.090;19.702;2022-08-23T19:03:15;20.40;99.90
24017;DHT22;12222;50.090;19.702;2022-08-23T19:08:39;20.30;99.90
24017;DHT22;12222;50.090;19.702;2022-08-23T19:14:03;20.20;99.90
24017;DHT22;12222;50.090;19.702;2022-08-23T19:19:26;20.10;99.90
24017;DHT22;12222;50.090;19.702;2022-08-23T19:24:49;20.00;99.90
24017;DHT22;12222;50.090;19.702;2022-08-23T19:30:13;20.10;99.90
24017;DHT22;12222;50.090;19.702;2022-08-23T19:35:38;20.10;99.90
24017;DHT22;12222;50.090;19.702;2022-08-23T19:41:02;20.20;99.90
24017;DHT22;12222;50.090;19.702;2022-08-23T19:46:27;20.20;99.90
24017;DHT22;12222;50.090;19.702;2022-08-23T19:51:50;20.20;99.90
24017;DHT22;12222;50.090;19.702;2022-08-23T19:57:14;20.10;99.90
24017;DHT22;12222;50.090;19.702;2022-08-23T20:02:46;20.10;99.90
24017;DHT22;12222;50.090;19.702;2022-08-23T20:08:09;20.00;99.90
24017;DHT22;12222;50.090;19.702;2022-08-23T20:13:34;20.00;99.90
24017;DHT22;12222;50.090;19.702;2022-08-23T20:18:57;19.90;99.90
24017;DHT22;12222;50.090;19.702;2022-08-23T20:24:20;19.90;99.90
24017;DHT22;12222;50.090;19.702;2022-08-23T20:30:06;19.80;99.90
24017;DHT22;12222;50.090;19.702;2022-08-23T20:35:29;19.80;99.90
24017;DHT22;12222;50.090;19.702;2022-08-23T20:40:53;19.90;99.90
24017;DHT22;12222;50.090;19.702;2022-08-23T20:46:17;19.80;99.90
24017;DHT22;12222;50.090;19.702;2022-08-23T20:51:40;19.90;99.90
24017;DHT22;12222;50.090;19.702;2022-08-23T20:57:04;19.80;99.90
24017;DHT22;12222;50.090;19.702;2022-08-23T21:02:28;19.80;99.90
24017;DHT22;12222;50.090;19.702;2022-08-23T21:07:54;19.80;99.90
24017;DHT22;12222;50.090;19.702;2022-08-23T21:13:18;19.90;99.90
24017;DHT22;12222;50.090;19.702;2022-08-23T21:18:42;19.90;99.90
24017;DHT22;12222;50.090;19.702;2022-08-23T21:24:07;19.90;99.90
24017;DHT22;12222;50.090;19.702;2022-08-23T21:29:33;19.80;99.90
24017;DHT22;12222;50.090;19.702;2022-08-23T21:34:57;19.80;99.90
24017;DHT22;12222;50.090;19.702;2022-08-23T21:40:21;19.80;99.90
24017;DHT22;12222;50.090;19.702;2022-08-23T21:45:47;19.90;99.90
24017;DHT22;12222;50.090;19.702;2022-08-23T21:51:11;19.90;99.90
24017;DHT22;12222;50.090;19.702;2022-08-23T21:56:38;19.90;99.90
24017;DHT22;12222;50.090;19.702;2022-08-23T22:02:06;19.80;99.90
24017;DHT22;12222;50.090;19.702;2022-08-23T22:07:29;19.90;99.90
24017;DHT22;12222;50.090;19.702;2022-08-23T22:12:54;19.80;99.90
24017;DHT22;12222;50.090;19.702;2022-08-23T22:18:17;19.80;99.90
24017;DHT22;12222;50.090;19.702;2022-08-23T22:24:01;19.70;99.90
24017;DHT22;12222;50.090;19.702;2022-08-23T22:29:34;19.50;99.90
24017;DHT22;12222;50.090;19.702;2022-08-23T22:34:59;19.50;99.90
24017;DHT22;12222;50.090;19.702;2022-08-23T22:40:21;19.40;99.90
24017;DHT22;12222;50.090;19.702;2022-08-23T22:45:55;19.30;99.90
24017;DHT22;12222;50.090;19.702;2022-08-23T22:51:21;19.40;99.90
24017;DHT22;12222;50.090;19.702;2022-08-23T22:56:47;19.40;99.90
24017;DHT22;12222;50.090;19.702;2022-08-23T23:02:09;19.30;99.90
24017;DHT22;12222;50.090;19.702;2022-08-23T23:07:32;19.30;99.90
24017;DHT22;12222;50.090;19.702;2022-08-23T23:13:13;19.50;99.90
24017;DHT22;12222;50.090;19.702;2022-08-23T23:18:35;19.50;99.90
24017;DHT22;12222;50.090;19.702;2022-08-23T23:23:58;19.50;99.90
24017;DHT22;12222;50.090;19.702;2022-08-23T23:29:21;19.60;99.90
24017;DHT22;12222;50.090;19.702;2022-08-23T23:34:43;19.60;99.90
24017;DHT22;12222;50.090;19.702;2022-08-23T23:40:05;19.60;99.90
24017;DHT22;12222;50.090;19.702;2022-08-23T23:45:28;19.60;99.90
24017;DHT22;12222;50.090;19.702;2022-08-23T23:50:50;19.50;99.90
24017;DHT22;12222;50.090;19.702;2022-08-23T23:56:14;19.40;99.90
